createdAt,value
2017-12-20T00:01:05.258Z,91.96
2017-12-20T00:06:06.077Z,92.01
2017-12-20T00:11:06.882Z,92.58
2017-12-20T00:16:10.777Z,93.01
2017-12-20T00:21:12.361Z,92.75
2017-12-20T00:26:13.185Z,93.25
2017-12-20T00:31:13.966Z,93.85
2017-12-20T00:36:14.783Z,94.17
2017-12-20T00:41:29.173Z,94.70
2017-12-20T00:46:29.965Z,94.84
2017-12-20T00:51:30.749Z,95.03
2017-12-20T00:56:31.545Z,95.25
2017-12-20T01:01:32.343Z,95.35
2017-12-20T01:06:33.162Z,95.41
2017-12-20T01:11:37.564Z,95.43
2017-12-20T01:16:38.345Z,95.30
2017-12-20T01:21:39.161Z,95.31
2017-12-20T01:26:39.959Z,95.29
2017-12-20T01:31:40.771Z,95.29
2017-12-20T01:36:41.622Z,95.31
2017-12-20T01:41:42.493Z,95.33
2017-12-20T01:46:43.358Z,95.43
2017-12-20T01:51:44.176Z,95.38
2017-12-20T01:56:44.985Z,95.47
2017-12-20T02:01:45.782Z,95.45
2017-12-20T02:06:46.599Z,95.50
2017-12-20T02:11:47.441Z,95.48
2017-12-20T02:16:48.256Z,95.39
2017-12-20T02:22:13.588Z,95.31
2017-12-20T02:27:14.383Z,95.38
2017-12-20T02:32:15.204Z,95.20
2017-12-20T02:37:16.043Z,95.27
2017-12-20T02:42:16.879Z,95.39
2017-12-20T02:47:17.697Z,95.35
2017-12-20T02:52:31.678Z,95.43
2017-12-20T02:57:32.485Z,95.53
2017-12-20T03:02:33.273Z,95.36
2017-12-20T03:07:34.077Z,95.17
2017-12-20T03:12:34.875Z,95.05
2017-12-20T03:17:35.717Z,94.82
2017-12-20T03:22:36.522Z,94.58
2017-12-20T03:27:37.313Z,94.36
2017-12-20T03:32:38.106Z,94.12
2017-12-20T03:37:49.302Z,94.06
2017-12-20T03:42:50.100Z,94.11
2017-12-20T03:47:50.911Z,94.25
2017-12-20T03:52:51.706Z,94.36
2017-12-20T03:57:52.541Z,94.37
2017-12-20T04:02:53.342Z,94.55
2017-12-20T04:07:54.157Z,94.36
2017-12-20T04:13:16.345Z,94.75
2017-12-20T04:18:17.150Z,94.78
2017-12-20T04:23:17.958Z,94.80
2017-12-20T04:28:18.765Z,94.96
2017-12-20T04:33:19.558Z,94.91
2017-12-20T04:38:20.362Z,95.00
2017-12-20T04:43:21.160Z,94.95
2017-12-20T04:48:28.528Z,94.81
2017-12-20T04:53:29.416Z,94.43
2017-12-20T04:58:30.201Z,94.32
2017-12-20T05:03:31.044Z,94.42
2017-12-20T05:08:31.817Z,94.52
2017-12-20T05:13:32.659Z,94.69
2017-12-20T05:18:33.476Z,94.58
2017-12-20T05:23:36.333Z,94.77
2017-12-20T05:28:37.151Z,94.81
2017-12-20T05:33:37.945Z,94.99
2017-12-20T05:38:38.772Z,94.96
2017-12-20T05:43:39.570Z,95.00
2017-12-20T05:48:40.398Z,94.90
2017-12-20T05:53:48.096Z,94.79
2017-12-20T05:59:13.534Z,94.67
2017-12-20T06:04:14.322Z,94.32
2017-12-20T06:09:21.593Z,94.07
2017-12-20T06:14:22.399Z,93.79
2017-12-20T06:19:23.253Z,94.11
2017-12-20T06:24:24.033Z,94.31
2017-12-20T06:29:24.938Z,94.77
2017-12-20T06:34:25.775Z,94.97
2017-12-20T06:39:26.622Z,95.04
2017-12-20T06:44:27.440Z,95.10
2017-12-20T06:49:28.240Z,95.26
2017-12-20T06:54:29.025Z,95.24
2017-12-20T06:59:29.824Z,95.06
2017-12-20T07:04:47.881Z,94.82
2017-12-20T07:09:48.689Z,93.94
2017-12-20T07:14:49.489Z,94.20
2017-12-20T07:19:50.267Z,94.32
2017-12-20T07:24:51.058Z,94.36
2017-12-20T07:29:51.862Z,94.18
2017-12-20T07:34:52.682Z,93.86
2017-12-20T07:39:53.499Z,93.85
2017-12-20T07:44:54.320Z,94.19
2017-12-20T07:49:55.163Z,94.17
2017-12-20T07:54:56.032Z,93.92
2017-12-20T07:59:56.885Z,93.62
2017-12-20T08:04:57.749Z,93.74
2017-12-20T08:09:58.586Z,94.10
2017-12-20T08:14:59.429Z,93.68
2017-12-20T08:20:00.263Z,93.38
2017-12-20T08:25:01.141Z,93.43
2017-12-20T08:30:01.963Z,93.34
2017-12-20T08:35:02.857Z,93.26
2017-12-20T08:40:03.681Z,92.66
2017-12-20T08:45:04.520Z,92.83
2017-12-20T08:50:05.359Z,91.95
2017-12-20T08:55:06.225Z,91.86
2017-12-20T09:00:07.093Z,91.08
2017-12-20T09:05:23.883Z,91.47
2017-12-20T09:10:28.686Z,91.42
2017-12-20T09:15:29.489Z,90.64
2017-12-20T09:20:41.375Z,90.71
2017-12-20T09:25:42.209Z,89.87
2017-12-20T09:30:43.066Z,89.79
2017-12-20T09:35:43.931Z,89.18
2017-12-20T09:40:44.796Z,90.46
2017-12-20T09:45:45.633Z,87.59
2017-12-20T09:50:46.458Z,87.75
2017-12-20T09:55:47.313Z,86.17
2017-12-20T10:00:51.743Z,87.26
2017-12-20T10:05:52.584Z,83.91
2017-12-20T10:10:53.397Z,86.41
2017-12-20T10:15:54.476Z,87.25
2017-12-20T10:20:59.806Z,83.97
2017-12-20T10:26:05.294Z,85.51
2017-12-20T10:31:06.286Z,87.71
2017-12-20T10:36:07.347Z,87.50
2017-12-20T10:41:10.417Z,87.81
2017-12-20T10:46:11.510Z,88.57
2017-12-20T10:51:12.518Z,87.76
2017-12-20T10:56:13.619Z,85.35
2017-12-20T11:01:15.063Z,84.28
2017-12-20T11:06:16.278Z,84.86
2017-12-20T11:11:17.484Z,83.24
2017-12-20T11:16:18.591Z,84.00
2017-12-20T11:21:19.603Z,87.36
2017-12-20T11:26:27.174Z,86.23
2017-12-20T11:31:29.322Z,84.50
2017-12-20T11:36:30.578Z,85.61
2017-12-20T11:41:31.637Z,88.26
2017-12-20T11:46:32.752Z,88.88
2017-12-20T11:51:46.673Z,89.52
2017-12-20T11:56:55.654Z,88.60
2017-12-20T12:07:32.876Z,87.97
2017-12-20T12:12:33.882Z,88.32
2017-12-20T12:17:34.996Z,87.50
2017-12-20T12:22:36.085Z,86.95
2017-12-20T12:27:37.216Z,88.12
2017-12-20T12:32:53.660Z,87.84
2017-12-20T12:37:59.862Z,87.78
2017-12-20T12:48:39.398Z,89.22
2017-12-20T12:59:21.957Z,88.55
2017-12-20T13:04:49.020Z,87.86
2017-12-20T13:15:30.234Z,87.52
2017-12-20T13:20:31.323Z,86.73
2017-12-20T13:25:32.368Z,86.74
2017-12-20T13:30:33.415Z,87.02
2017-12-20T13:35:34.457Z,89.12
2017-12-20T13:40:35.535Z,89.31
2017-12-20T13:45:56.184Z,88.39
2017-12-20T13:50:57.317Z,89.12
2017-12-20T13:55:58.350Z,88.70
2017-12-20T14:00:59.439Z,88.77
2017-12-20T14:06:00.477Z,88.27
2017-12-20T14:27:25.234Z,88.55
2017-12-20T14:32:26.298Z,89.24
2017-12-20T14:37:30.391Z,87.96
2017-12-20T14:42:31.483Z,88.64
2017-12-20T14:47:32.531Z,88.40
2017-12-20T14:52:40.369Z,89.53
2017-12-20T14:57:41.398Z,90.56
2017-12-20T15:02:42.462Z,91.45
2017-12-20T15:07:43.489Z,91.81
2017-12-20T15:12:44.548Z,92.17
2017-12-20T15:17:45.601Z,92.06
2017-12-20T15:22:46.698Z,92.83
2017-12-20T15:27:49.772Z,92.60
2017-12-20T15:32:50.877Z,92.88
2017-12-20T15:37:51.967Z,92.67
2017-12-20T15:42:52.965Z,92.73
2017-12-20T15:47:54.970Z,92.90
2017-12-20T15:53:01.021Z,93.36
2017-12-20T15:58:07.814Z,93.28
2017-12-20T16:03:08.800Z,93.30
2017-12-20T16:08:09.972Z,93.35
2017-12-20T16:13:11.002Z,93.37
2017-12-20T16:18:12.050Z,92.41
2017-12-20T16:23:17.830Z,92.82
2017-12-20T16:28:19.601Z,93.71
2017-12-20T16:33:20.694Z,93.72
2017-12-20T16:38:23.831Z,93.89
2017-12-20T16:43:25.975Z,93.65
2017-12-20T16:48:27.074Z,93.93
2017-12-20T16:53:40.451Z,93.63
2017-12-20T16:58:41.538Z,93.79
2017-12-20T17:03:43.064Z,94.15
2017-12-20T17:08:48.941Z,93.72
2017-12-20T17:13:50.011Z,94.57
2017-12-20T17:18:56.604Z,94.22
2017-12-20T17:23:57.763Z,93.95
2017-12-20T17:29:00.882Z,94.61
2017-12-20T17:34:01.976Z,94.66
2017-12-20T17:39:02.988Z,94.31
2017-12-20T17:44:04.814Z,94.41
2017-12-20T17:49:23.328Z,93.28
2017-12-20T17:54:24.449Z,93.70
2017-12-20T17:59:25.527Z,94.04
2017-12-20T18:04:34.499Z,93.96
2017-12-20T18:09:35.701Z,94.50
2017-12-20T18:14:36.757Z,94.69
2017-12-20T18:19:37.820Z,94.31
2017-12-20T18:24:42.202Z,94.27
2017-12-20T18:29:49.882Z,94.58
2017-12-20T18:34:51.041Z,94.73
2017-12-20T18:39:52.027Z,95.31
2017-12-20T18:44:53.173Z,95.52
2017-12-20T18:49:54.188Z,95.35
2017-12-20T18:54:55.301Z,94.69
2017-12-20T18:59:56.281Z,94.50
2017-12-20T19:04:59.411Z,94.43
2017-12-20T19:10:00.480Z,94.69
2017-12-20T19:15:02.723Z,94.85
2017-12-20T19:20:03.938Z,95.32
2017-12-20T19:25:12.651Z,95.61
2017-12-20T19:30:13.719Z,95.33
2017-12-20T19:35:16.881Z,95.12
2017-12-20T19:40:17.973Z,95.27
2017-12-20T19:45:19.110Z,95.02
2017-12-20T19:50:20.187Z,95.28
2017-12-20T19:55:21.174Z,95.10
2017-12-20T20:00:22.292Z,95.19
2017-12-20T20:05:23.327Z,94.81
2017-12-20T20:10:24.433Z,95.29
2017-12-20T20:15:26.297Z,95.23
2017-12-20T20:20:27.379Z,94.91
2017-12-20T20:25:28.470Z,94.46
2017-12-20T20:30:29.503Z,95.02
2017-12-20T20:35:30.516Z,95.09
2017-12-20T20:40:34.885Z,95.12
2017-12-20T20:45:41.915Z,94.23
2017-12-20T20:50:42.740Z,91.70
2017-12-20T20:55:43.631Z,90.68
2017-12-20T21:00:51.202Z,89.69
2017-12-20T21:05:54.135Z,90.01
2017-12-20T21:10:55.005Z,89.35
2017-12-20T21:15:55.891Z,89.47
2017-12-20T21:20:56.776Z,89.91
2017-12-20T21:25:57.673Z,90.07
2017-12-20T21:30:58.553Z,91.12
2017-12-20T21:36:01.164Z,92.01
2017-12-20T21:41:02.077Z,92.22
2017-12-20T21:46:06.513Z,92.46
2017-12-20T21:51:14.125Z,92.95
2017-12-20T21:56:14.992Z,93.24
2017-12-20T22:01:15.904Z,93.89
2017-12-20T22:06:16.780Z,94.01
2017-12-20T22:11:18.685Z,94.36
2017-12-20T22:16:19.572Z,94.73
2017-12-20T22:21:23.923Z,94.43
2017-12-20T22:26:24.824Z,94.93
2017-12-20T22:31:26.729Z,94.71
2017-12-20T22:36:27.616Z,95.08
2017-12-20T22:41:28.504Z,95.14
2017-12-20T22:46:29.354Z,95.04
2017-12-20T22:51:30.260Z,95.19
2017-12-20T22:56:31.160Z,95.18
2017-12-20T23:01:35.418Z,94.82
2017-12-20T23:06:39.705Z,94.92
2017-12-20T23:11:40.557Z,95.17
2017-12-20T23:16:41.447Z,95.20
2017-12-20T23:21:42.373Z,95.09
2017-12-20T23:26:43.222Z,94.72
2017-12-20T23:31:44.128Z,93.99
2017-12-20T23:36:45.035Z,94.35
2017-12-20T23:41:45.868Z,94.53
2017-12-20T23:46:46.751Z,94.50
2017-12-20T23:51:47.575Z,94.32
2017-12-20T23:56:48.421Z,93.80
